LFPM 030430Z AUTO 04006KT 350V090 9999 FEW015 OVC022 03/01 Q1016

Les avions qui composent notre flotte

Avion Robin DR400-100

Avion école

(freins aux palonniers)

F-GGJG
   * tarif promotionnel appliqué pendant la formation des élèves non brevetés


F-GGJG Planche